Meadow Grove, Nebraska
Current Conditions -  °F | °C
As of 9:56 PM on Friday 24 Oct 2014 (Local Time) from KOFK Reporting Station
Clear Clear  
Wind Chill: 50°   Ceiling: Unl
Heat Index: 50°   Visibility: 10mi
Dew Point: 45°   Wind: 3mph
Humidity: 83%   Direction: 260°W
Pressure: 30.01"   Gusts: NA
Location:  42.03°N, 97.73°W
Report Text: KOFK 250256Z AUTO 26003KT 10SM CLR 10/07 A3001 RMK AO2 SLP165 T01000072 51018
Loading
Personal Weather Stations






























Interactive Weather Map
Tropical Storm Tracking
New forecast layout! Learn more

10-Day Weather Forecast

Advertisements
Track Severe Weather on mobile